Skip Navigation Links Skip Navigation Links

Current Weather

Storm Lake Muni, Storm Lake, Iowa

For information only: do not use for flight planning or navigation.
Latest weather
Observation time Monday, October 18, 2021 2:55 PM CDT
Local time Monday, October 18, 2021 3:14 PM CDT
Flight conditions Visual Meteorological Conditions
Winds
Wind direction South (180°)
Wind speed 17 mph
Wind gusting to 25 mph
Visibility 10 mi.
Sky condition
Ceiling unlimited
Sky clear
Temperature 75°F
Dewpoint 36°F
Altimeter 29.93 in.Hg
Derived measurements
Relative humidity 24%
Density altitude 2631 ft.
Remarks
Fully automated report.
Automated weather observing station with precipitation discriminator.
METAR KSLB 181955Z AUTO 18015G22KT 10SM CLR 24/02 A2993 RMK AO2

Settings

Location code

InnerDrive.Weather 4.0.6770.0 Release CLR 4.0.30319.42000
Copyright ©2018 Inner Drive Technology. All rights reserved. Portions Copyright ©1986-2018 David Braverman.

Find weather

Site navigation


Skip Navigation Links

Place info

Page info

PayPal - The safer, easier way to pay online!

Return home.

Copyright ©2021 Inner Drive Technology. Purveyors of fine, hand-crafted computer software. Page printed 2021-10-18T20:14:20 UTC.